CheckWX is a tool to help pilots better visualize weather data.  It is not intended as a substitute for an official pre-flight weather briefing.

21:01:59 UTC

CYXR METAR
Earlton (Timiskaming Regional) Airport
Earlton, Canada
Current

27 mins ago

CYXR 232035Z AUTO VRB02KT 9SM OVC006 13/12 A2970 RMK PRESRR SLP064 DENSITY ALT 900FT
Observed
May-23 @ 20:35 UTC
Wind
  • Variable at 2 KTS
Visibility
9 SM
Flight Rules
IFR
Cloud Levels
  • Overcast at 600' AGL
Temperature
13°C / 55°F
Dewpoint
12°C / 54°F
Humidity
94%
Altimeter
29.7" Hg
Pressure
1005.72 hPa
Previous

2 hours ago

CYXR 231928Z AUTO 17004KT 140V230 2 1/2SM RA BR BKN012 BKN038 BKN055 OVC070 12/11 A2970 RMK LTNG DIST S NW SLP066 DENSITY ALT 800FT
Observed
May-23 @ 19:28 UTC
Wind
  • 170° at 4 KTS
Visibility
2 1/2 SM
Flight Rules
IFR
Conditions
Rain, Mist
Cloud Levels
  • Broken at 1,200' AGL
  • Broken at 3,800' AGL
  • Broken at 5,500' AGL
  • Overcast at 7,000' AGL
Temperature
12°C / 54°F
Dewpoint
11°C / 52°F
Humidity
94%
Altimeter
29.7" Hg
Pressure
1005.72 hPa
Previous

2 hours ago

CYXR 231917Z AUTO 26008KT 110V260 4SM -RA BR OVC012 13/11 A2972 RMK PRESRR SLP071 DENSITY ALT 900FT
Observed
May-23 @ 19:17 UTC
Wind
  • 260° at 8 KTS
Visibility
4 SM
Flight Rules
MVFR
Conditions
Light Rain, Mist
Cloud Levels
  • Overcast at 1,200' AGL
Temperature
13°C / 55°F
Dewpoint
11°C / 52°F
Humidity
88%
Altimeter
29.72" Hg
Pressure
1006.42 hPa